createdAt,value
2019-05-19T00:01:01.725Z,98012.19
2019-05-19T00:03:27.700Z,98006.26
2019-05-19T00:05:53.809Z,98003.75
2019-05-19T00:08:20.059Z,98011.12
2019-05-19T00:10:46.213Z,98006.47
2019-05-19T00:13:12.755Z,98013.21
2019-05-19T00:15:38.817Z,98004.45
2019-05-19T00:18:05.029Z,98012.34
2019-05-19T00:20:31.092Z,98005.02
2019-05-19T00:22:57.234Z,98005.81
2019-05-19T00:25:23.376Z,98013.08
2019-05-19T00:27:49.789Z,98017.02
2019-05-19T00:30:16.167Z,98011.84
2019-05-19T00:32:42.204Z,98017.08
2019-05-19T00:35:08.716Z,98016.06
2019-05-19T00:37:34.742Z,98014.32
2019-05-19T00:40:00.777Z,98011.80
2019-05-19T00:42:27.269Z,98019.72
2019-05-19T00:44:53.338Z,98015.80
2019-05-19T00:47:19.484Z,98017.06
2019-05-19T00:49:45.950Z,98009.98
2019-05-19T00:52:11.975Z,98005.69
2019-05-19T00:54:38.040Z,98012.66
2019-05-19T00:57:04.925Z,98005.44
2019-05-19T00:59:31.988Z,98012.94
2019-05-19T01:01:58.043Z,98016.63
2019-05-19T01:04:24.699Z,98001.44
2019-05-19T01:06:50.798Z,98010.19
2019-05-19T01:09:16.956Z,97999.55
2019-05-19T01:11:43.483Z,97998.67
2019-05-19T01:14:09.536Z,97995.78
2019-05-19T01:16:35.699Z,98000.48
2019-05-19T01:19:02.069Z,97994.00
2019-05-19T01:21:28.695Z,97986.56
2019-05-19T01:23:54.875Z,97993.91
2019-05-19T01:26:20.906Z,97989.37
2019-05-19T01:28:46.918Z,97981.42
2019-05-19T01:31:13.064Z,97983.59
2019-05-19T01:33:40.072Z,97981.59
2019-05-19T01:36:06.335Z,97984.52
2019-05-19T01:38:32.552Z,97986.70
2019-05-19T01:40:58.644Z,97988.39
2019-05-19T01:43:24.669Z,97990.92
2019-05-19T01:45:50.785Z,97985.37
2019-05-19T01:48:19.051Z,97990.83
2019-05-19T01:50:45.961Z,97977.92
2019-05-19T01:53:13.887Z,97981.34
2019-05-19T01:55:40.112Z,97985.78
2019-05-19T01:58:06.406Z,97987.45
2019-05-19T02:00:32.549Z,97994.81
2019-05-19T02:02:58.706Z,97984.67
2019-05-19T02:05:24.797Z,97992.16
2019-05-19T02:07:50.969Z,97993.95
2019-05-19T02:10:17.837Z,98006.86
2019-05-19T02:12:43.962Z,97986.12
2019-05-19T02:15:10.553Z,97995.98
2019-05-19T02:17:36.999Z,97993.47
2019-05-19T02:20:06.849Z,97988.27
2019-05-19T02:22:33.047Z,97994.23
2019-05-19T02:24:59.859Z,97987.02
2019-05-19T02:27:26.023Z,97976.91
2019-05-19T02:29:52.193Z,97979.44
2019-05-19T02:32:18.818Z,97988.30
2019-05-19T02:34:44.999Z,97985.16
2019-05-19T02:37:11.159Z,97980.61
2019-05-19T02:39:37.730Z,97981.75
2019-05-19T02:42:03.900Z,97974.53
2019-05-19T02:44:31.124Z,97980.36
2019-05-19T02:46:57.704Z,97979.22
2019-05-19T02:49:25.026Z,97981.27
2019-05-19T02:51:51.322Z,97980.25
2019-05-19T02:54:18.707Z,97977.34
2019-05-19T02:56:45.962Z,97977.20
2019-05-19T02:59:12.688Z,97990.64
2019-05-19T03:01:40.667Z,97995.84
2019-05-19T03:04:06.857Z,97998.63
2019-05-19T03:06:33.063Z,97993.94
2019-05-19T03:08:59.235Z,97988.73
2019-05-19T03:11:25.592Z,97990.53
2019-05-19T03:13:52.035Z,97993.45
2019-05-19T03:16:18.079Z,97989.90
2019-05-19T03:18:44.136Z,97987.00
2019-05-19T03:21:11.977Z,97990.92
2019-05-19T03:23:38.464Z,97998.90
2019-05-19T03:26:04.515Z,98001.78
2019-05-19T03:28:31.141Z,97996.73
2019-05-19T03:31:05.031Z,97998.13
2019-05-19T03:33:44.844Z,97995.73
2019-05-19T03:36:11.113Z,98002.43
2019-05-19T03:38:37.143Z,98006.85
2019-05-19T03:41:03.364Z,98014.94
2019-05-19T03:43:29.804Z,98013.55
2019-05-19T03:45:55.863Z,98006.22
2019-05-19T03:48:22.020Z,98010.28
2019-05-19T03:50:48.590Z,98008.23
2019-05-19T03:53:14.620Z,98002.55
2019-05-19T03:55:40.817Z,98012.91
2019-05-19T03:58:07.127Z,98013.42
2019-05-19T04:00:33.281Z,98012.66
2019-05-19T04:02:59.341Z,98012.80
2019-05-19T04:05:25.950Z,98013.42
2019-05-19T04:07:52.050Z,98019.61
2019-05-19T04:10:18.296Z,98018.10
2019-05-19T04:12:44.737Z,98019.61
2019-05-19T04:15:11.024Z,98020.27
2019-05-19T04:17:37.097Z,98025.83
2019-05-19T04:20:05.407Z,98014.33
2019-05-19T04:22:31.500Z,98022.16
2019-05-19T04:24:57.544Z,98017.98
2019-05-19T04:27:24.175Z,98024.80
2019-05-19T04:29:50.319Z,98045.04
2019-05-19T04:32:16.425Z,98029.85
2019-05-19T04:34:42.931Z,98029.23
2019-05-19T04:37:09.111Z,98029.61
2019-05-19T04:39:35.246Z,98020.75
2019-05-19T04:42:01.335Z,98032.91
2019-05-19T04:44:27.423Z,98026.33
2019-05-19T04:46:53.632Z,98030.77
2019-05-19T04:49:19.980Z,98032.53
2019-05-19T04:51:46.245Z,98033.79
2019-05-19T04:54:12.431Z,97794.81
2019-05-19T04:56:38.581Z,98019.63
2019-05-19T04:59:04.750Z,98038.21
2019-05-19T05:01:30.919Z,98024.19
2019-05-19T05:03:57.074Z,98019.11
2019-05-19T05:06:23.303Z,98016.33
2019-05-19T05:08:49.482Z,98018.86
2019-05-19T05:11:15.831Z,98022.38
2019-05-19T05:13:42.000Z,98021.62
2019-05-19T05:16:08.139Z,98020.99
2019-05-19T05:18:34.524Z,98020.08
2019-05-19T05:21:00.682Z,98023.48
2019-05-19T05:23:26.748Z,98020.56
2019-05-19T05:25:53.516Z,98020.55
2019-05-19T05:28:19.660Z,98022.82
2019-05-19T05:30:45.715Z,98020.80
2019-05-19T05:33:12.100Z,98015.33
2019-05-19T05:35:38.760Z,98012.64
2019-05-19T05:38:05.035Z,98007.68
2019-05-19T05:40:31.657Z,98019.95
2019-05-19T05:42:57.751Z,98016.48
2019-05-19T05:45:23.902Z,98021.02
2019-05-19T05:47:50.203Z,98019.19
2019-05-19T05:50:16.333Z,98023.09
2019-05-19T05:52:42.504Z,98019.11
2019-05-19T05:55:09.179Z,98010.08
2019-05-19T05:57:35.215Z,98001.69
2019-05-19T06:00:01.486Z,98004.78
2019-05-19T06:02:27.529Z,98012.08
2019-05-19T06:04:53.735Z,98004.66
2019-05-19T06:07:20.516Z,98003.72
2019-05-19T06:09:46.723Z,98009.62
2019-05-19T06:12:12.956Z,98002.22
2019-05-19T06:14:39.512Z,98017.89
2019-05-19T06:17:05.654Z,98012.75
2019-05-19T06:19:31.714Z,98012.15
2019-05-19T06:21:58.170Z,98016.23
2019-05-19T06:24:24.469Z,98016.23
2019-05-19T06:26:50.767Z,98019.44
2019-05-19T06:29:17.228Z,98016.30
2019-05-19T06:31:43.303Z,98011.73
2019-05-19T06:34:09.419Z,98006.09
2019-05-19T06:36:35.930Z,98002.47
2019-05-19T06:39:05.328Z,98001.36
2019-05-19T06:41:31.646Z,98009.27
2019-05-19T06:43:58.198Z,98010.81
2019-05-19T06:46:24.240Z,98004.32
2019-05-19T06:48:50.415Z,98009.95
2019-05-19T06:51:18.973Z,98008.62
2019-05-19T06:53:45.000Z,98002.11
2019-05-19T06:56:11.280Z,98000.51
2019-05-19T06:58:37.702Z,97992.36
2019-05-19T07:01:03.868Z,97998.95
2019-05-19T07:03:30.006Z,97997.48
2019-05-19T07:05:56.476Z,97993.98
2019-05-19T07:08:22.696Z,97989.59
2019-05-19T07:10:48.825Z,98000.00
2019-05-19T07:13:15.065Z,97992.88
2019-05-19T07:15:41.121Z,97981.95
2019-05-19T07:18:07.672Z,97993.97
2019-05-19T07:20:33.987Z,97995.82
2019-05-19T07:23:00.150Z,97982.05
2019-05-19T07:25:26.432Z,97975.75
2019-05-19T07:27:52.642Z,97973.96
2019-05-19T07:30:19.063Z,97980.54
2019-05-19T07:32:45.350Z,97971.59
2019-05-19T07:35:11.431Z,97968.02
2019-05-19T07:37:38.315Z,97971.09
2019-05-19T07:40:04.924Z,97966.39
2019-05-19T07:42:31.474Z,97967.31
2019-05-19T07:44:58.149Z,97977.78
2019-05-19T07:47:24.410Z,97969.69
2019-05-19T07:49:50.610Z,97965.63
2019-05-19T07:52:17.321Z,97969.07
2019-05-19T07:54:43.526Z,97961.22
2019-05-19T07:57:09.601Z,97982.08
2019-05-19T07:59:36.269Z,97976.83
2019-05-19T08:02:03.039Z,97956.75
2019-05-19T08:04:29.432Z,97958.52
2019-05-19T08:07:00.463Z,97731.05
2019-05-19T08:09:27.027Z,97969.96
2019-05-19T08:11:53.270Z,97950.61
2019-05-19T08:14:19.822Z,97951.83
2019-05-19T08:16:46.549Z,97950.16
2019-05-19T08:19:17.157Z,97781.02
2019-05-19T08:21:43.864Z,97950.42
2019-05-19T08:24:10.715Z,97954.03
2019-05-19T08:26:42.291Z,97954.52
2019-05-19T08:29:08.351Z,97966.63
2019-05-19T08:31:35.365Z,97947.95
2019-05-19T08:34:01.847Z,97940.19
2019-05-19T08:36:29.814Z,97947.06
2019-05-19T08:38:56.101Z,97945.28
2019-05-19T08:41:23.480Z,97937.54
2019-05-19T08:43:49.680Z,97938.49
2019-05-19T08:46:15.791Z,97942.60
2019-05-19T08:48:41.865Z,97942.53
2019-05-19T08:51:08.850Z,97949.06
2019-05-19T08:53:35.450Z,97942.92
2019-05-19T08:56:05.167Z,97944.37
2019-05-19T08:58:31.571Z,97943.91
2019-05-19T09:00:57.625Z,97935.77
2019-05-19T09:03:24.793Z,97938.44
2019-05-19T09:05:51.071Z,97897.02
2019-05-19T09:08:23.833Z,97935.89
2019-05-19T09:10:50.376Z,97934.52
2019-05-19T09:13:16.608Z,97929.78
2019-05-19T09:15:43.429Z,97926.38
2019-05-19T09:18:13.327Z,97926.31
2019-05-19T09:20:41.927Z,97923.89
2019-05-19T09:23:11.193Z,97924.97
2019-05-19T09:25:37.829Z,97772.12
2019-05-19T09:28:04.486Z,97923.09
2019-05-19T09:30:31.128Z,97928.81
2019-05-19T09:32:59.988Z,97916.81
2019-05-19T09:35:26.299Z,97919.41
2019-05-19T09:37:53.064Z,97923.54
2019-05-19T09:40:19.748Z,97919.87
2019-05-19T09:42:47.406Z,97917.59
2019-05-19T09:45:15.181Z,97644.62
2019-05-19T09:47:43.981Z,97926.89
2019-05-19T09:50:12.092Z,97920.23
2019-05-19T09:52:39.507Z,97921.48
2019-05-19T09:55:06.192Z,97912.41
2019-05-19T09:57:35.162Z,97915.84
2019-05-19T10:00:07.514Z,97911.20
2019-05-19T10:02:40.963Z,97915.69
2019-05-19T10:05:09.548Z,97910.92
2019-05-19T10:07:36.754Z,97909.17
2019-05-19T10:10:08.333Z,97908.08
2019-05-19T10:12:37.117Z,97902.80
2019-05-19T10:15:06.377Z,97906.76
2019-05-19T10:17:32.786Z,97906.47
2019-05-19T10:20:01.668Z,97895.80
2019-05-19T10:22:28.185Z,97903.14
2019-05-19T10:25:19.944Z,97901.83
2019-05-19T10:27:29.386Z,97902.57
2019-05-19T10:29:58.996Z,97899.83
2019-05-19T10:32:25.509Z,97901.17
2019-05-19T10:34:52.336Z,97901.56
2019-05-19T10:37:21.152Z,97898.37
2019-05-19T10:39:47.953Z,97895.33
2019-05-19T10:42:32.594Z,97891.27
2019-05-19T10:44:59.858Z,97746.39
2019-05-19T10:47:27.553Z,97757.78
2019-05-19T10:49:55.772Z,97893.11
2019-05-19T10:52:22.009Z,97881.11
2019-05-19T10:54:48.212Z,97886.60
2019-05-19T10:57:14.527Z,97894.67
2019-05-19T10:59:40.761Z,97896.95
2019-05-19T11:02:07.560Z,97890.81
2019-05-19T11:04:33.733Z,97884.30
2019-05-19T11:06:59.934Z,97887.09
2019-05-19T11:09:26.256Z,97885.11
2019-05-19T11:11:52.427Z,97888.06
2019-05-19T11:14:22.604Z,97879.34
2019-05-19T11:16:53.280Z,97839.06
2019-05-19T11:19:19.948Z,97738.88
2019-05-19T11:21:46.278Z,97877.74
2019-05-19T11:24:12.597Z,97877.39
2019-05-19T11:26:39.527Z,97722.86
2019-05-19T11:29:05.927Z,97867.37
2019-05-19T11:31:32.469Z,97749.45
2019-05-19T11:33:58.719Z,97872.86
2019-05-19T11:36:24.878Z,97877.79
2019-05-19T11:38:51.810Z,97860.63
2019-05-19T11:41:18.212Z,97855.47
2019-05-19T11:43:44.585Z,97851.29
2019-05-19T11:46:12.655Z,97849.70
2019-05-19T11:48:39.100Z,97695.70
2019-05-19T11:51:05.339Z,97849.81
2019-05-19T11:53:32.045Z,97843.79
2019-05-19T11:56:06.649Z,97689.41
2019-05-19T11:58:26.716Z,97845.63
2019-05-19T12:00:54.140Z,97848.14
2019-05-19T12:03:20.269Z,97850.03
2019-05-19T12:05:46.594Z,97845.05
2019-05-19T12:08:13.175Z,97839.11
2019-05-19T12:10:39.663Z,97841.93
2019-05-19T12:13:06.618Z,97698.11
2019-05-19T12:15:34.324Z,97827.41
2019-05-19T12:18:04.258Z,97835.84
2019-05-19T12:20:31.465Z,97834.47
2019-05-19T12:22:58.223Z,97835.63
2019-05-19T12:25:24.655Z,97837.55
2019-05-19T12:27:51.581Z,97835.02
2019-05-19T12:30:19.193Z,97845.15
2019-05-19T12:32:45.758Z,97830.47
2019-05-19T12:35:13.511Z,97830.39
2019-05-19T12:37:40.192Z,97825.88
2019-05-19T12:40:06.645Z,97827.30
2019-05-19T12:42:33.050Z,97830.16
2019-05-19T12:45:03.303Z,97830.39
2019-05-19T12:47:29.453Z,97827.03
2019-05-19T12:49:55.765Z,97823.13
2019-05-19T12:52:25.102Z,97831.44
2019-05-19T12:54:53.257Z,97825.78
2019-05-19T12:57:27.336Z,97824.45
2019-05-19T12:59:54.291Z,97836.67
2019-05-19T13:02:23.542Z,97817.70
2019-05-19T13:05:04.212Z,97816.80
2019-05-19T13:07:18.806Z,97818.53
2019-05-19T13:09:46.232Z,97820.68
2019-05-19T13:12:17.478Z,97817.17
2019-05-19T13:14:45.173Z,97808.28
2019-05-19T13:17:11.272Z,97817.77
2019-05-19T13:19:37.455Z,97814.37
2019-05-19T13:22:06.386Z,97811.59
2019-05-19T13:24:36.064Z,97816.11
2019-05-19T13:27:02.775Z,97798.76
2019-05-19T13:29:29.090Z,97813.50
2019-05-19T13:31:55.297Z,97819.73
2019-05-19T13:34:21.632Z,97825.77
2019-05-19T13:36:48.202Z,97814.73
2019-05-19T13:39:17.422Z,97675.05
2019-05-19T13:41:44.910Z,97817.18
2019-05-19T13:44:15.852Z,97814.34
2019-05-19T13:46:42.085Z,97809.84
2019-05-19T13:49:08.474Z,97809.88
2019-05-19T13:51:34.938Z,97821.28
2019-05-19T13:54:01.208Z,97825.70
2019-05-19T13:56:27.380Z,97832.08
2019-05-19T13:58:53.627Z,97833.45
2019-05-19T14:01:28.285Z,97835.58
2019-05-19T14:03:52.095Z,97825.71
2019-05-19T14:06:17.524Z,97821.50
2019-05-19T14:08:43.714Z,97822.34
2019-05-19T14:11:14.425Z,97815.30
2019-05-19T14:13:40.651Z,97812.65
2019-05-19T14:16:09.297Z,97805.13
2019-05-19T14:18:39.962Z,97805.72
2019-05-19T14:21:06.933Z,97652.33
2019-05-19T14:23:33.103Z,97655.88
2019-05-19T14:26:04.698Z,97832.14
2019-05-19T14:28:31.292Z,97818.95
2019-05-19T14:30:57.584Z,97824.44
2019-05-19T14:33:24.669Z,97826.20
2019-05-19T14:35:51.683Z,97825.00
2019-05-19T14:38:18.103Z,97815.84
2019-05-19T14:40:44.655Z,97821.47
2019-05-19T14:43:12.526Z,97830.89
2019-05-19T14:45:49.923Z,97682.55
2019-05-19T14:48:22.138Z,97842.14
2019-05-19T14:50:53.937Z,97856.70
2019-05-19T14:53:22.333Z,97862.47
2019-05-19T14:55:53.056Z,97690.97
2019-05-19T14:58:20.717Z,97875.92
2019-05-19T15:00:47.477Z,97867.09
2019-05-19T15:03:17.130Z,97867.89
2019-05-19T15:05:46.709Z,97877.38
2019-05-19T15:08:13.120Z,97732.09
2019-05-19T15:10:40.785Z,97876.56
2019-05-19T15:13:08.509Z,97894.28
2019-05-19T15:15:41.038Z,97873.48
2019-05-19T15:18:09.328Z,97862.16
2019-05-19T15:20:35.817Z,97858.39
2019-05-19T15:23:06.930Z,97850.16
2019-05-19T15:25:33.916Z,97842.06
2019-05-19T15:28:04.864Z,97841.48
2019-05-19T15:30:28.539Z,97842.72
2019-05-19T15:32:54.957Z,97828.37
2019-05-19T15:35:21.108Z,97831.84
2019-05-19T15:37:47.357Z,97834.06
2019-05-19T15:40:14.079Z,97823.02
2019-05-19T15:42:40.374Z,97824.42
2019-05-19T15:45:08.150Z,97812.61
2019-05-19T15:47:34.752Z,97808.38
2019-05-19T15:50:01.022Z,97815.30
2019-05-19T15:52:27.226Z,97810.45
2019-05-19T15:54:53.678Z,97806.53
2019-05-19T15:57:19.773Z,97808.86
2019-05-19T15:59:45.997Z,97817.08
2019-05-19T16:02:12.390Z,97804.12
2019-05-19T16:04:38.629Z,97800.80
2019-05-19T16:07:04.928Z,97803.53
2019-05-19T16:09:31.226Z,97796.77
2019-05-19T16:11:57.413Z,97796.44
2019-05-19T16:14:23.783Z,97796.60
2019-05-19T16:16:50.069Z,97795.55
2019-05-19T16:19:16.223Z,97788.48
2019-05-19T16:21:43.003Z,97793.88
2019-05-19T16:24:09.721Z,97800.27
2019-05-19T16:26:36.018Z,97811.77
2019-05-19T16:29:02.503Z,97793.89
2019-05-19T16:31:28.860Z,97789.99
2019-05-19T16:33:55.144Z,97797.72
2019-05-19T16:36:21.739Z,97784.08
2019-05-19T16:38:47.801Z,97786.91
2019-05-19T16:41:14.091Z,97790.31
2019-05-19T16:43:40.674Z,97799.63
2019-05-19T16:46:06.852Z,97792.33
2019-05-19T16:48:33.276Z,97803.38
2019-05-19T16:50:59.974Z,97797.55
2019-05-19T16:53:26.003Z,97797.00
2019-05-19T16:55:52.272Z,97788.65
2019-05-19T16:58:21.519Z,97744.30
2019-05-19T17:00:47.273Z,97792.23
2019-05-19T17:03:13.454Z,97784.75
2019-05-19T17:05:39.999Z,97782.75
2019-05-19T17:08:06.379Z,97787.16
2019-05-19T17:10:32.476Z,97787.16
2019-05-19T17:12:58.902Z,97797.21
2019-05-19T17:15:25.075Z,97783.16
2019-05-19T17:17:51.269Z,97785.23
2019-05-19T17:20:18.738Z,97787.16
2019-05-19T17:22:44.934Z,97792.00
2019-05-19T17:25:11.109Z,97786.58
2019-05-19T17:27:37.761Z,97787.16
2019-05-19T17:30:05.630Z,97793.97
2019-05-19T17:32:31.931Z,97783.12
2019-05-19T17:34:58.204Z,97753.36
2019-05-19T17:37:24.473Z,97789.47
2019-05-19T17:39:50.659Z,97789.09
2019-05-19T17:42:17.258Z,97791.05
2019-05-19T17:44:44.882Z,97784.45
2019-05-19T17:47:11.035Z,97792.31
2019-05-19T17:49:37.149Z,97783.33
2019-05-19T17:52:05.487Z,97793.97
2019-05-19T17:54:31.876Z,97785.64
2019-05-19T17:56:58.957Z,97785.70
2019-05-19T17:59:25.182Z,97792.13
2019-05-19T18:01:51.359Z,97783.11
2019-05-19T18:04:17.542Z,97788.89
2019-05-19T18:06:43.698Z,97817.23
2019-05-19T18:09:09.901Z,97787.00
2019-05-19T18:11:36.284Z,97788.25
2019-05-19T18:14:03.030Z,97789.78
2019-05-19T18:16:29.741Z,97781.93
2019-05-19T18:18:56.457Z,97786.44
2019-05-19T18:21:22.821Z,97783.70
2019-05-19T18:23:50.607Z,97782.52
2019-05-19T18:26:17.364Z,97779.70
2019-05-19T18:28:43.495Z,97759.09
2019-05-19T18:31:09.674Z,97777.57
2019-05-19T18:33:36.146Z,97776.84
2019-05-19T18:36:03.202Z,97782.77
2019-05-19T18:38:29.457Z,97789.36
2019-05-19T18:40:55.960Z,97785.31
2019-05-19T18:43:22.144Z,97778.94
2019-05-19T18:45:51.279Z,97781.77
2019-05-19T18:48:17.931Z,97782.52
2019-05-19T18:50:43.970Z,97785.80
2019-05-19T18:53:10.149Z,97780.80
2019-05-19T18:55:36.175Z,97787.94
2019-05-19T18:58:02.557Z,97788.19
2019-05-19T19:00:36.122Z,97780.59
2019-05-19T19:03:03.691Z,97785.19
2019-05-19T19:05:30.082Z,97781.89
2019-05-19T19:07:56.343Z,97786.28
2019-05-19T19:10:22.658Z,97782.82
2019-05-19T19:12:48.870Z,97783.55
2019-05-19T19:15:15.034Z,97787.20
2019-05-19T19:17:41.341Z,97790.74
2019-05-19T19:20:07.516Z,97801.02
2019-05-19T19:22:36.194Z,97798.28
2019-05-19T19:25:02.966Z,97813.47
2019-05-19T19:27:29.044Z,97806.79
2019-05-19T19:30:03.749Z,97812.66
2019-05-19T19:32:23.382Z,97805.86
2019-05-19T19:34:49.572Z,97812.41
2019-05-19T19:37:15.590Z,97809.22
2019-05-19T19:39:41.880Z,97809.36
2019-05-19T19:42:08.213Z,97812.62
2019-05-19T19:44:34.273Z,97815.61
2019-05-19T19:47:00.336Z,97856.77
2019-05-19T19:49:27.028Z,97856.49
2019-05-19T19:51:53.299Z,97854.20
2019-05-19T19:54:19.639Z,97852.17
2019-05-19T19:56:47.130Z,97855.44
2019-05-19T19:59:13.321Z,97860.41
2019-05-19T20:01:39.422Z,97856.50
2019-05-19T20:04:05.802Z,97862.21
2019-05-19T20:06:32.003Z,97842.95
2019-05-19T20:08:58.159Z,97847.94
2019-05-19T20:11:24.774Z,97853.30
2019-05-19T20:13:50.974Z,97853.50
2019-05-19T20:16:17.163Z,97860.19
2019-05-19T20:18:43.810Z,97860.91
2019-05-19T20:21:10.000Z,97860.83
2019-05-19T20:23:36.461Z,97850.23
2019-05-19T20:26:02.763Z,97853.59
2019-05-19T20:28:29.056Z,97858.27
2019-05-19T20:30:55.363Z,97860.33
2019-05-19T20:33:21.881Z,97857.09
2019-05-19T20:35:48.104Z,97847.05
2019-05-19T20:38:14.287Z,97832.36
2019-05-19T20:40:41.406Z,97830.02
2019-05-19T20:43:07.586Z,97819.08
2019-05-19T20:45:33.750Z,97814.95
2019-05-19T20:47:59.914Z,97834.06
2019-05-19T20:50:26.189Z,97837.08
2019-05-19T20:52:52.632Z,97845.08
2019-05-19T20:55:18.838Z,97834.69
2019-05-19T20:57:44.978Z,97835.63
2019-05-19T21:00:11.686Z,97816.06
2019-05-19T21:02:39.436Z,97830.42
2019-05-19T21:05:05.556Z,97837.44
2019-05-19T21:07:32.221Z,97836.24
2019-05-19T21:09:58.329Z,97831.61
2019-05-19T21:12:24.513Z,97840.60
2019-05-19T21:14:51.195Z,97818.38
2019-05-19T21:17:17.344Z,97810.80
2019-05-19T21:19:43.508Z,97815.02
2019-05-19T21:22:09.932Z,97812.84
2019-05-19T21:24:35.988Z,97812.55
2019-05-19T21:27:02.643Z,97820.87
2019-05-19T21:29:29.127Z,97821.42
2019-05-19T21:31:55.391Z,97822.83
2019-05-19T21:34:21.677Z,97816.36
2019-05-19T21:36:48.374Z,97819.08
2019-05-19T21:39:14.459Z,97815.97
2019-05-19T21:41:40.636Z,97823.98
2019-05-19T21:44:07.204Z,97823.69
2019-05-19T21:46:33.267Z,97824.50
2019-05-19T21:48:59.618Z,97829.48
2019-05-19T21:51:26.003Z,97823.27
2019-05-19T21:53:52.133Z,97818.25
2019-05-19T21:56:18.198Z,97827.36
2019-05-19T21:58:44.247Z,97820.89
2019-05-19T22:01:22.672Z,97817.75
2019-05-19T22:03:39.205Z,97821.55
2019-05-19T22:06:05.383Z,97828.56
2019-05-19T22:08:31.472Z,97817.88
2019-05-19T22:10:57.676Z,97823.20
2019-05-19T22:13:23.818Z,97823.75
2019-05-19T22:15:50.742Z,97816.52
2019-05-19T22:18:17.306Z,97812.64
2019-05-19T22:20:43.545Z,97821.95
2019-05-19T22:23:09.704Z,97809.57
2019-05-19T22:25:35.817Z,97825.34
2019-05-19T22:28:02.238Z,97782.31
2019-05-19T22:30:29.179Z,97827.63
2019-05-19T22:32:55.437Z,97839.19
2019-05-19T22:35:21.636Z,97836.50
2019-05-19T22:37:48.112Z,97847.63
2019-05-19T22:40:15.220Z,97835.10
2019-05-19T22:42:41.372Z,97835.31
2019-05-19T22:45:08.239Z,97828.94
2019-05-19T22:47:34.309Z,97829.48
2019-05-19T22:50:00.571Z,97832.08
2019-05-19T22:52:27.148Z,97827.56
2019-05-19T22:54:53.734Z,97617.73
2019-05-19T22:57:20.138Z,97824.17
2019-05-19T22:59:46.591Z,97829.80
2019-05-19T23:02:12.660Z,97817.84
2019-05-19T23:04:38.714Z,97812.67
2019-05-19T23:07:05.300Z,97817.56
2019-05-19T23:09:31.491Z,97813.35
2019-05-19T23:11:57.731Z,97813.48
2019-05-19T23:14:24.098Z,97814.66
2019-05-19T23:16:50.360Z,97807.02
2019-05-19T23:19:16.460Z,97806.48
2019-05-19T23:21:42.907Z,97812.41
2019-05-19T23:24:12.347Z,97810.89
2019-05-19T23:26:38.501Z,97803.80
2019-05-19T23:29:05.050Z,97808.32
2019-05-19T23:31:31.222Z,97798.94
2019-05-19T23:33:57.368Z,97807.56
2019-05-19T23:36:23.823Z,97812.63
2019-05-19T23:38:49.992Z,97817.91
2019-05-19T23:41:16.160Z,97823.06
2019-05-19T23:43:42.215Z,97825.22
2019-05-19T23:46:08.327Z,97838.45
2019-05-19T23:48:34.590Z,97828.55
2019-05-19T23:51:00.992Z,97828.74
2019-05-19T23:53:27.065Z,97822.59
2019-05-19T23:55:53.245Z,97821.19
2019-05-19T23:58:19.287Z,97822.58
